This is the latest recevied weather packets stored in our database for station/object K6GMW. If no packets are shown the sender has not sent any weather packets the latest 10 day(s).
| Time | Temp. | Humidity | Pressure | Rain* | Wind** | Luminosity | Snow |
|---|---|---|---|---|---|---|---|
| 1787859842 | 33.33° C | 54% | 1016.4 hPa | 0 mm | - | 849 W/m² | - |
| 1787859537 | 32.78° C | 56% | 1016.4 hPa | 0 mm | - | 867 W/m² | - |
| 1787859237 | 32.78° C | 56% | 1016.5 hPa | 0 mm | - | 867 W/m² | - |
| 1787858934 | 32.78° C | 57% | 1016.4 hPa | 0 mm | - | 864 W/m² | - |
| 1787858629 | 32.78° C | 56% | 1016.6 hPa | 0 mm | - | 883 W/m² | - |
| 1787858324 | 33.33° C | 55% | 1016.7 hPa | 0 mm | - | 889 W/m² | - |
| 1787858019 | 32.78° C | 56% | 1016.6 hPa | 0 mm | - | 893 W/m² | - |
| 1787857715 | 32.78° C | 58% | 1016.8 hPa | 0 mm | - | 902 W/m² | - |
| 1787857411 | 32.78° C | 59% | 1016.9 hPa | 0 mm | - | 907 W/m² | - |
| 1787857108 | 32.78° C | 59% | 1016.9 hPa | 0 mm | - | 911 W/m² | - |
| 1787856804 | 32.22° C | 60% | 1016.9 hPa | 0 mm | - | 919 W/m² | - |
| 1787856498 | 32.22° C | 62% | 1016.8 hPa | 0 mm | - | 923 W/m² | - |
| 1787856194 | 32.22° C | 61% | 1017 hPa | 0 mm | - | 925 W/m² | - |
| 1787855894 | 32.22° C | 61% | 1017 hPa | 0 mm | - | 916 W/m² | - |
| 1787855589 | 31.11° C | 63% | 1016.9 hPa | 0 mm | - | 926 W/m² | - |
| 1787855284 | 31.67° C | 61% | 1017.1 hPa | 0 mm | - | 935 W/m² | - |
| 1787854980 | 31.11° C | 64% | 1017.1 hPa | 0 mm | - | 930 W/m² | - |
| 1787854675 | 31.67° C | 62% | 1017.2 hPa | 0 mm | - | 938 W/m² | - |
| 1787854375 | 31.11° C | 64% | 1017.2 hPa | 0 mm | - | 947 W/m² | - |
| 1787854070 | 31.11° C | 66% | 1017.3 hPa | 0 mm | - | 936 W/m² | - |
| 1787853769 | 31.11° C | 63% | 1017.5 hPa | 0 mm | - | 949 W/m² | - |
| 1787853468 | 31.11° C | 63% | 1017.4 hPa | 0 mm | - | 945 W/m² | - |
| 1787853168 | 31.11° C | 64% | 1017.4 hPa | 0 mm | - | 941 W/m² | - |
| 1787852862 | 30.56° C | 67% | 1017.5 hPa | 0 mm | - | 943 W/m² | - |
| 1787852562 | 30° C | 68% | 1017.5 hPa | 0 mm | - | 929 W/m² | - |
* Rain latest hour (hover to see other rain measurements)
** Current wind speed in m/s (hover to see current wind gust speed)